Cornell, Illinois
Current Conditions -  °F | °C
As of 12:55 AM on Thursday 23 Oct 2014 (Local Time) from KPNT Reporting Station
Clear Clear  
Wind Chill: 29°   Ceiling: Unl
Heat Index: 35°   Visibility: 10mi
Dew Point: 33°   Wind: 7mph
Humidity: 94%   Direction: 120°ESE
Pressure: 30.25"   Gusts: NA
Location:  40.99°N, 88.73°W
Report Text: KPNT 230555Z AUTO 12006KT 10SM CLR 02/01 A3025 RMK AO2 T00170008 10060 20014 401521012
Loading
Personal Weather Stations






























Interactive Weather Map
Tropical Storm Tracking
New forecast layout! Learn more

10-Day Weather Forecast

Advertisements
Track Severe Weather on mobile